sensor_id;sensor_type;location;lat;lon;timestamp;P1;durP1;ratioP1;P2;durP2;ratioP2
23720;SDS011;42950;52.134;5.578;2022-08-25T00:00:36;7.15;;;4.72;;
23720;SDS011;42950;52.134;5.578;2022-08-25T00:03:01;7.60;;;4.85;;
23720;SDS011;42950;52.134;5.578;2022-08-25T00:05:28;5.22;;;4.70;;
23720;SDS011;42950;52.134;5.578;2022-08-25T00:07:55;7.35;;;5.72;;
23720;SDS011;42950;52.134;5.578;2022-08-25T00:10:21;7.45;;;4.97;;
23720;SDS011;42950;52.134;5.578;2022-08-25T00:12:47;5.00;;;4.57;;
23720;SDS011;42950;52.134;5.578;2022-08-25T00:15:12;7.25;;;5.45;;
23720;SDS011;42950;52.134;5.578;2022-08-25T00:17:38;7.85;;;5.03;;
23720;SDS011;42950;52.134;5.578;2022-08-25T00:20:04;6.15;;;5.65;;
23720;SDS011;42950;52.134;5.578;2022-08-25T00:22:31;6.25;;;5.00;;
23720;SDS011;42950;52.134;5.578;2022-08-25T00:24:56;5.80;;;5.03;;
23720;SDS011;42950;52.134;5.578;2022-08-25T00:27:22;5.43;;;5.03;;
23720;SDS011;42950;52.134;5.578;2022-08-25T00:29:47;5.53;;;5.03;;
23720;SDS011;42950;52.134;5.578;2022-08-25T00:32:13;6.95;;;5.28;;
23720;SDS011;42950;52.134;5.578;2022-08-25T00:34:39;6.78;;;5.68;;
23720;SDS011;42950;52.134;5.578;2022-08-25T00:37:06;5.75;;;5.25;;
23720;SDS011;42950;52.134;5.578;2022-08-25T00:39:33;7.70;;;5.47;;
23720;SDS011;42950;52.134;5.578;2022-08-25T00:42:00;5.95;;;5.30;;
23720;SDS011;42950;52.134;5.578;2022-08-25T00:44:28;7.32;;;5.43;;
23720;SDS011;42950;52.134;5.578;2022-08-25T00:46:56;5.25;;;4.72;;
23720;SDS011;42950;52.134;5.578;2022-08-25T00:49:28;7.10;;;5.93;;
23720;SDS011;42950;52.134;5.578;2022-08-25T00:51:58;6.32;;;5.72;;
23720;SDS011;42950;52.134;5.578;2022-08-25T00:54:31;7.15;;;5.75;;
23720;SDS011;42950;52.134;5.578;2022-08-25T00:57:02;6.10;;;5.57;;
23720;SDS011;42950;52.134;5.578;2022-08-25T00:59:30;7.97;;;6.35;;
23720;SDS011;42950;52.134;5.578;2022-08-25T01:01:56;6.55;;;6.05;;
23720;SDS011;42950;52.134;5.578;2022-08-25T01:04:23;6.45;;;5.45;;
23720;SDS011;42950;52.134;5.578;2022-08-25T01:06:49;8.30;;;5.93;;
23720;SDS011;42950;52.134;5.578;2022-08-25T01:09:15;5.80;;;5.22;;
23720;SDS011;42950;52.134;5.578;2022-08-25T01:11:42;7.25;;;6.10;;
23720;SDS011;42950;52.134;5.578;2022-08-25T01:14:09;5.78;;;5.18;;
23720;SDS011;42950;52.134;5.578;2022-08-25T01:16:38;6.80;;;5.57;;
23720;SDS011;42950;52.134;5.578;2022-08-25T01:19:06;7.25;;;6.65;;
23720;SDS011;42950;52.134;5.578;2022-08-25T01:21:36;6.47;;;5.97;;
23720;SDS011;42950;52.134;5.578;2022-08-25T01:24:10;7.45;;;5.85;;
23720;SDS011;42950;52.134;5.578;2022-08-25T01:26:43;7.63;;;6.40;;
23720;SDS011;42950;52.134;5.578;2022-08-25T01:29:08;7.15;;;5.95;;
23720;SDS011;42950;52.134;5.578;2022-08-25T01:31:51;7.57;;;6.55;;
23720;SDS011;42950;52.134;5.578;2022-08-25T01:34:21;6.97;;;6.35;;
23720;SDS011;42950;52.134;5.578;2022-08-25T01:36:48;7.45;;;6.75;;
23720;SDS011;42950;52.134;5.578;2022-08-25T01:39:14;7.13;;;5.85;;
23720;SDS011;42950;52.134;5.578;2022-08-25T01:44:39;8.75;;;6.80;;
23720;SDS011;42950;52.134;5.578;2022-08-25T01:47:07;8.02;;;7.10;;
23720;SDS011;42950;52.134;5.578;2022-08-25T01:49:33;8.25;;;6.05;;
23720;SDS011;42950;52.134;5.578;2022-08-25T01:52:00;7.72;;;6.85;;
23720;SDS011;42950;52.134;5.578;2022-08-25T01:54:26;7.03;;;6.43;;
23720;SDS011;42950;52.134;5.578;2022-08-25T01:56:51;7.10;;;6.50;;
23720;SDS011;42950;52.134;5.578;2022-08-25T01:59:17;7.75;;;6.95;;
23720;SDS011;42950;52.134;5.578;2022-08-25T02:01:45;6.97;;;6.28;;
23720;SDS011;42950;52.134;5.578;2022-08-25T02:04:11;6.95;;;6.25;;
23720;SDS011;42950;52.134;5.578;2022-08-25T02:06:36;6.20;;;5.60;;
23720;SDS011;42950;52.134;5.578;2022-08-25T02:09:03;7.00;;;6.38;;
23720;SDS011;42950;52.134;5.578;2022-08-25T02:11:32;7.00;;;6.30;;
23720;SDS011;42950;52.134;5.578;2022-08-25T02:13:59;6.55;;;5.95;;
23720;SDS011;42950;52.134;5.578;2022-08-25T02:16:27;7.88;;;6.75;;
23720;SDS011;42950;52.134;5.578;2022-08-25T02:18:55;8.02;;;6.45;;
23720;SDS011;42950;52.134;5.578;2022-08-25T02:21:21;7.00;;;6.28;;
23720;SDS011;42950;52.134;5.578;2022-08-25T02:23:47;5.78;;;5.28;;
23720;SDS011;42950;52.134;5.578;2022-08-25T02:26:13;6.90;;;6.30;;
23720;SDS011;42950;52.134;5.578;2022-08-25T02:28:44;6.75;;;6.18;;
23720;SDS011;42950;52.134;5.578;2022-08-25T02:31:11;6.93;;;6.32;;
23720;SDS011;42950;52.134;5.578;2022-08-25T02:33:37;7.13;;;6.32;;
23720;SDS011;42950;52.134;5.578;2022-08-25T02:36:02;7.55;;;6.70;;
23720;SDS011;42950;52.134;5.578;2022-08-25T02:38:28;7.07;;;6.38;;
23720;SDS011;42950;52.134;5.578;2022-08-25T02:40:54;7.93;;;6.63;;
23720;SDS011;42950;52.134;5.578;2022-08-25T02:43:22;7.15;;;5.95;;
23720;SDS011;42950;52.134;5.578;2022-08-25T02:45:49;7.47;;;5.35;;
23720;SDS011;42950;52.134;5.578;2022-08-25T02:48:19;8.10;;;5.57;;
23720;SDS011;42950;52.134;5.578;2022-08-25T02:50:46;6.50;;;5.63;;
23720;SDS011;42950;52.134;5.578;2022-08-25T02:53:16;5.25;;;4.78;;
23720;SDS011;42950;52.134;5.578;2022-08-25T02:55:45;5.97;;;5.47;;
23720;SDS011;42950;52.134;5.578;2022-08-25T02:58:11;8.40;;;5.13;;
23720;SDS011;42950;52.134;5.578;2022-08-25T03:00:37;6.10;;;5.38;;
23720;SDS011;42950;52.134;5.578;2022-08-25T03:03:03;5.00;;;4.53;;
23720;SDS011;42950;52.134;5.578;2022-08-25T03:05:30;4.90;;;4.50;;
23720;SDS011;42950;52.134;5.578;2022-08-25T03:07:56;6.07;;;4.80;;
23720;SDS011;42950;52.134;5.578;2022-08-25T03:10:22;5.55;;;4.50;;
23720;SDS011;42950;52.134;5.578;2022-08-25T03:12:47;4.93;;;4.53;;
23720;SDS011;42950;52.134;5.578;2022-08-25T03:15:15;7.00;;;4.68;;
23720;SDS011;42950;52.134;5.578;2022-08-25T03:17:42;5.00;;;4.60;;
23720;SDS011;42950;52.134;5.578;2022-08-25T03:20:08;6.13;;;4.90;;
23720;SDS011;42950;52.134;5.578;2022-08-25T03:22:34;5.13;;;4.60;;
23720;SDS011;42950;52.134;5.578;2022-08-25T03:25:00;5.57;;;4.40;;
23720;SDS011;42950;52.134;5.578;2022-08-25T03:27:45;5.28;;;4.10;;
23720;SDS011;42950;52.134;5.578;2022-08-25T03:30:12;6.55;;;4.50;;
23720;SDS011;42950;52.134;5.578;2022-08-25T03:32:38;6.55;;;4.18;;
23720;SDS011;42950;52.134;5.578;2022-08-25T03:35:04;6.85;;;4.47;;
23720;SDS011;42950;52.134;5.578;2022-08-25T03:37:30;8.55;;;3.85;;
23720;SDS011;42950;52.134;5.578;2022-08-25T03:39:55;4.28;;;3.88;;
23720;SDS011;42950;52.134;5.578;2022-08-25T03:42:21;6.18;;;4.28;;
23720;SDS011;42950;52.134;5.578;2022-08-25T03:44:46;5.95;;;3.90;;
23720;SDS011;42950;52.134;5.578;2022-08-25T03:47:13;6.70;;;3.90;;
23720;SDS011;42950;52.134;5.578;2022-08-25T03:49:38;7.07;;;4.38;;
23720;SDS011;42950;52.134;5.578;2022-08-25T03:52:04;7.18;;;4.50;;
23720;SDS011;42950;52.134;5.578;2022-08-25T03:54:30;6.18;;;4.78;;
23720;SDS011;42950;52.134;5.578;2022-08-25T03:56:55;6.00;;;4.18;;
23720;SDS011;42950;52.134;5.578;2022-08-25T03:59:21;5.63;;;4.50;;
23720;SDS011;42950;52.134;5.578;2022-08-25T04:01:47;4.57;;;4.18;;
23720;SDS011;42950;52.134;5.578;2022-08-25T04:04:14;7.93;;;4.30;;
23720;SDS011;42950;52.134;5.578;2022-08-25T04:06:40;7.55;;;4.57;;
23720;SDS011;42950;52.134;5.578;2022-08-25T04:09:07;5.13;;;4.57;;
23720;SDS011;42950;52.134;5.578;2022-08-25T04:11:33;4.97;;;4.57;;
23720;SDS011;42950;52.134;5.578;2022-08-25T04:14:00;4.97;;;4.45;;
23720;SDS011;42950;52.134;5.578;2022-08-25T04:16:27;5.03;;;4.55;;
23720;SDS011;42950;52.134;5.578;2022-08-25T04:18:55;5.97;;;4.65;;
23720;SDS011;42950;52.134;5.578;2022-08-25T04:21:22;8.68;;;4.60;;
23720;SDS011;42950;52.134;5.578;2022-08-25T04:23:48;5.80;;;4.63;;
23720;SDS011;42950;52.134;5.578;2022-08-25T04:26:16;7.25;;;4.10;;
23720;SDS011;42950;52.134;5.578;2022-08-25T04:28:49;5.53;;;4.28;;
23720;SDS011;42950;52.134;5.578;2022-08-25T04:31:16;8.07;;;4.75;;
23720;SDS011;42950;52.134;5.578;2022-08-25T04:33:44;5.53;;;4.72;;
23720;SDS011;42950;52.134;5.578;2022-08-25T04:36:12;9.95;;;4.35;;
23720;SDS011;42950;52.134;5.578;2022-08-25T04:38:39;9.00;;;4.90;;
23720;SDS011;42950;52.134;5.578;2022-08-25T04:41:06;8.70;;;4.80;;
23720;SDS011;42950;52.134;5.578;2022-08-25T04:43:32;5.53;;;4.93;;
23720;SDS011;42950;52.134;5.578;2022-08-25T04:46:03;5.95;;;4.57;;
23720;SDS011;42950;52.134;5.578;2022-08-25T04:48:35;9.20;;;4.65;;
23720;SDS011;42950;52.134;5.578;2022-08-25T04:51:08;10.20;;;4.97;;
23720;SDS011;42950;52.134;5.578;2022-08-25T04:53:36;8.75;;;5.00;;
23720;SDS011;42950;52.134;5.578;2022-08-25T04:56:09;11.38;;;4.63;;
23720;SDS011;42950;52.134;5.578;2022-08-25T04:58:37;9.27;;;4.80;;
23720;SDS011;42950;52.134;5.578;2022-08-25T05:03:29;10.05;;;4.88;;
23720;SDS011;42950;52.134;5.578;2022-08-25T05:05:55;7.07;;;4.57;;
23720;SDS011;42950;52.134;5.578;2022-08-25T05:08:21;5.82;;;4.20;;
23720;SDS011;42950;52.134;5.578;2022-08-25T05:10:47;7.85;;;4.55;;
23720;SDS011;42950;52.134;5.578;2022-08-25T05:13:14;7.78;;;4.40;;
23720;SDS011;42950;52.134;5.578;2022-08-25T05:15:40;8.65;;;4.88;;
23720;SDS011;42950;52.134;5.578;2022-08-25T05:18:15;6.57;;;4.45;;
23720;SDS011;42950;52.134;5.578;2022-08-25T05:20:42;6.53;;;4.90;;
23720;SDS011;42950;52.134;5.578;2022-08-25T05:23:08;8.82;;;5.00;;
23720;SDS011;42950;52.134;5.578;2022-08-25T05:25:33;5.93;;;4.78;;
23720;SDS011;42950;52.134;5.578;2022-08-25T05:27:59;7.30;;;4.60;;
23720;SDS011;42950;52.134;5.578;2022-08-25T05:30:25;12.30;;;5.57;;
23720;SDS011;42950;52.134;5.578;2022-08-25T05:32:51;8.07;;;5.07;;
23720;SDS011;42950;52.134;5.578;2022-08-25T05:35:16;10.50;;;5.90;;
23720;SDS011;42950;52.134;5.578;2022-08-25T05:37:43;16.70;;;6.78;;
23720;SDS011;42950;52.134;5.578;2022-08-25T05:40:10;11.52;;;5.50;;
23720;SDS011;42950;52.134;5.578;2022-08-25T05:42:35;7.45;;;5.07;;
23720;SDS011;42950;52.134;5.578;2022-08-25T05:45:01;6.65;;;4.40;;
23720;SDS011;42950;52.134;5.578;2022-08-25T05:47:28;11.48;;;4.63;;
23720;SDS011;42950;52.134;5.578;2022-08-25T05:49:53;9.18;;;4.60;;
23720;SDS011;42950;52.134;5.578;2022-08-25T05:52:20;6.28;;;4.82;;
23720;SDS011;42950;52.134;5.578;2022-08-25T05:54:45;16.08;;;6.00;;
23720;SDS011;42950;52.134;5.578;2022-08-25T05:57:11;9.85;;;4.90;;
23720;SDS011;42950;52.134;5.578;2022-08-25T05:59:37;7.57;;;4.22;;
23720;SDS011;42950;52.134;5.578;2022-08-25T06:02:02;6.10;;;4.32;;
23720;SDS011;42950;52.134;5.578;2022-08-25T06:04:47;6.93;;;4.72;;
23720;SDS011;42950;52.134;5.578;2022-08-25T06:07:12;7.05;;;4.47;;
23720;SDS011;42950;52.134;5.578;2022-08-25T06:09:39;5.82;;;4.30;;
23720;SDS011;42950;52.134;5.578;2022-08-25T06:12:05;6.63;;;4.38;;
23720;SDS011;42950;52.134;5.578;2022-08-25T06:14:32;7.15;;;4.50;;
23720;SDS011;42950;52.134;5.578;2022-08-25T06:16:58;5.32;;;4.13;;
23720;SDS011;42950;52.134;5.578;2022-08-25T06:19:24;5.32;;;3.85;;
23720;SDS011;42950;52.134;5.578;2022-08-25T06:21:54;5.78;;;4.47;;
23720;SDS011;42950;52.134;5.578;2022-08-25T06:24:20;8.10;;;4.10;;
23720;SDS011;42950;52.134;5.578;2022-08-25T06:26:46;4.38;;;3.53;;
23720;SDS011;42950;52.134;5.578;2022-08-25T06:29:12;5.90;;;4.00;;
23720;SDS011;42950;52.134;5.578;2022-08-25T06:31:38;5.55;;;4.38;;
23720;SDS011;42950;52.134;5.578;2022-08-25T06:34:04;5.95;;;4.10;;
23720;SDS011;42950;52.134;5.578;2022-08-25T06:36:30;4.97;;;3.63;;
23720;SDS011;42950;52.134;5.578;2022-08-25T06:38:56;8.20;;;3.58;;
23720;SDS011;42950;52.134;5.578;2022-08-25T06:41:21;7.55;;;3.85;;
23720;SDS011;42950;52.134;5.578;2022-08-25T06:43:47;6.85;;;4.07;;
23720;SDS011;42950;52.134;5.578;2022-08-25T06:46:14;6.57;;;3.40;;
23720;SDS011;42950;52.134;5.578;2022-08-25T06:48:43;6.90;;;3.53;;
23720;SDS011;42950;52.134;5.578;2022-08-25T06:51:10;10.35;;;4.45;;
23720;SDS011;42950;52.134;5.578;2022-08-25T06:53:38;7.50;;;3.95;;
23720;SDS011;42950;52.134;5.578;2022-08-25T06:56:04;5.65;;;3.40;;
23720;SDS011;42950;52.134;5.578;2022-08-25T06:58:30;4.60;;;3.75;;
23720;SDS011;42950;52.134;5.578;2022-08-25T07:01:05;7.35;;;3.85;;
23720;SDS011;42950;52.134;5.578;2022-08-25T07:03:32;6.45;;;3.80;;
23720;SDS011;42950;52.134;5.578;2022-08-25T07:05:58;7.40;;;4.07;;
23720;SDS011;42950;52.134;5.578;2022-08-25T07:08:23;5.35;;;3.88;;
23720;SDS011;42950;52.134;5.578;2022-08-25T07:10:49;7.00;;;3.42;;
23720;SDS011;42950;52.134;5.578;2022-08-25T07:13:14;9.38;;;3.50;;
23720;SDS011;42950;52.134;5.578;2022-08-25T07:15:40;8.38;;;3.33;;
23720;SDS011;42950;52.134;5.578;2022-08-25T07:18:07;7.60;;;3.22;;
23720;SDS011;42950;52.134;5.578;2022-08-25T07:20:34;6.78;;;2.80;;
23720;SDS011;42950;52.134;5.578;2022-08-25T07:23:00;5.95;;;2.97;;
23720;SDS011;42950;52.134;5.578;2022-08-25T07:25:26;5.35;;;2.90;;
23720;SDS011;42950;52.134;5.578;2022-08-25T07:27:51;4.97;;;2.88;;
23720;SDS011;42950;52.134;5.578;2022-08-25T07:30:17;5.97;;;2.60;;
23720;SDS011;42950;52.134;5.578;2022-08-25T07:32:43;4.95;;;2.60;;
23720;SDS011;42950;52.134;5.578;2022-08-25T07:35:09;10.20;;;2.88;;
23720;SDS011;42950;52.134;5.578;2022-08-25T07:37:53;9.02;;;2.85;;
23720;SDS011;42950;52.134;5.578;2022-08-25T07:42:52;5.05;;;2.85;;
23720;SDS011;42950;52.134;5.578;2022-08-25T07:45:19;5.63;;;3.00;;
23720;SDS011;42950;52.134;5.578;2022-08-25T07:47:49;6.95;;;2.83;;
23720;SDS011;42950;52.134;5.578;2022-08-25T07:50:17;4.38;;;2.60;;
23720;SDS011;42950;52.134;5.578;2022-08-25T07:52:43;7.65;;;2.80;;
23720;SDS011;42950;52.134;5.578;2022-08-25T07:55:08;4.60;;;2.72;;
23720;SDS011;42950;52.134;5.578;2022-08-25T07:57:35;6.93;;;2.50;;
23720;SDS011;42950;52.134;5.578;2022-08-25T08:00:02;4.72;;;2.55;;
23720;SDS011;42950;52.134;5.578;2022-08-25T08:02:30;6.68;;;2.80;;
23720;SDS011;42950;52.134;5.578;2022-08-25T08:04:55;8.27;;;2.88;;
23720;SDS011;42950;52.134;5.578;2022-08-25T08:07:23;6.88;;;2.90;;
23720;SDS011;42950;52.134;5.578;2022-08-25T08:09:50;8.23;;;2.70;;
23720;SDS011;42950;52.134;5.578;2022-08-25T08:12:17;6.53;;;2.55;;
23720;SDS011;42950;52.134;5.578;2022-08-25T08:14:43;8.00;;;2.90;;
23720;SDS011;42950;52.134;5.578;2022-08-25T08:17:09;4.82;;;2.70;;
23720;SDS011;42950;52.134;5.578;2022-08-25T08:19:35;7.47;;;2.83;;
23720;SDS011;42950;52.134;5.578;2022-08-25T08:22:02;8.55;;;2.65;;
23720;SDS011;42950;52.134;5.578;2022-08-25T08:24:30;7.70;;;2.50;;
23720;SDS011;42950;52.134;5.578;2022-08-25T08:27:02;5.15;;;2.70;;
23720;SDS011;42950;52.134;5.578;2022-08-25T08:29:32;8.18;;;2.53;;
23720;SDS011;42950;52.134;5.578;2022-08-25T08:31:59;4.05;;;2.45;;
23720;SDS011;42950;52.134;5.578;2022-08-25T08:34:25;6.13;;;2.70;;
23720;SDS011;42950;52.134;5.578;2022-08-25T08:36:50;3.97;;;2.47;;
23720;SDS011;42950;52.134;5.578;2022-08-25T08:39:17;8.25;;;2.92;;
23720;SDS011;42950;52.134;5.578;2022-08-25T08:47:28;3.10;;;2.50;;
23720;SDS011;42950;52.134;5.578;2022-08-25T08:53:08;5.18;;;2.80;;
23720;SDS011;42950;52.134;5.578;2022-08-25T08:56:35;4.15;;;2.40;;
23720;SDS011;42950;52.134;5.578;2022-08-25T09:01:12;3.03;;;2.50;;
23720;SDS011;42950;52.134;5.578;2022-08-25T09:03:48;4.25;;;2.70;;
23720;SDS011;42950;52.134;5.578;2022-08-25T09:06:25;6.88;;;2.80;;
23720;SDS011;42950;52.134;5.578;2022-08-25T09:09:13;7.35;;;2.53;;
23720;SDS011;42950;52.134;5.578;2022-08-25T09:31:14;5.10;;;2.47;;
23720;SDS011;42950;52.134;5.578;2022-08-25T09:33:56;6.13;;;2.20;;
23720;SDS011;42950;52.134;5.578;2022-08-25T09:36:23;6.47;;;2.50;;
23720;SDS011;42950;52.134;5.578;2022-08-25T09:38:49;3.20;;;2.20;;
23720;SDS011;42950;52.134;5.578;2022-08-25T09:41:16;3.05;;;2.25;;
23720;SDS011;42950;52.134;5.578;2022-08-25T09:43:58;4.82;;;2.45;;
23720;SDS011;42950;52.134;5.578;2022-08-25T09:46:25;7.55;;;2.13;;
23720;SDS011;42950;52.134;5.578;2022-08-25T09:51:23;4.07;;;2.00;;
23720;SDS011;42950;52.134;5.578;2022-08-25T09:53:55;5.15;;;2.08;;
23720;SDS011;42950;52.134;5.578;2022-08-25T09:56:29;5.45;;;2.20;;
23720;SDS011;42950;52.134;5.578;2022-08-25T09:59:21;3.80;;;2.10;;
23720;SDS011;42950;52.134;5.578;2022-08-25T10:01:55;5.82;;;2.00;;
23720;SDS011;42950;52.134;5.578;2022-08-25T10:04:29;4.78;;;2.13;;
23720;SDS011;42950;52.134;5.578;2022-08-25T10:06:57;4.40;;;1.90;;
23720;SDS011;42950;52.134;5.578;2022-08-25T10:09:33;5.38;;;2.00;;
23720;SDS011;42950;52.134;5.578;2022-08-25T10:12:14;3.47;;;1.60;;
23720;SDS011;42950;52.134;5.578;2022-08-25T10:14:45;4.00;;;2.00;;
23720;SDS011;42950;52.134;5.578;2022-08-25T10:17:28;2.78;;;2.03;;
23720;SDS011;42950;52.134;5.578;2022-08-25T10:22:42;2.83;;;1.90;;
23720;SDS011;42950;52.134;5.578;2022-08-25T10:25:10;3.83;;;1.65;;
23720;SDS011;42950;52.134;5.578;2022-08-25T10:28:05;3.00;;;1.60;;
23720;SDS011;42950;52.134;5.578;2022-08-25T10:36:09;2.88;;;1.80;;
23720;SDS011;42950;52.134;5.578;2022-08-25T10:39:06;7.28;;;1.90;;
23720;SDS011;42950;52.134;5.578;2022-08-25T10:53:13;4.47;;;2.10;;
23720;SDS011;42950;52.134;5.578;2022-08-25T10:55:48;2.60;;;1.80;;
23720;SDS011;42950;52.134;5.578;2022-08-25T10:58:26;5.22;;;1.67;;
23720;SDS011;42950;52.134;5.578;2022-08-25T11:01:04;2.58;;;1.80;;
23720;SDS011;42950;52.134;5.578;2022-08-25T11:03:51;2.80;;;1.70;;
23720;SDS011;42950;52.134;5.578;2022-08-25T11:06:46;3.67;;;1.75;;
23720;SDS011;42950;52.134;5.578;2022-08-25T11:09:15;4.20;;;1.92;;
23720;SDS011;42950;52.134;5.578;2022-08-25T11:11:48;3.15;;;1.80;;
23720;SDS011;42950;52.134;5.578;2022-08-25T11:15:06;2.75;;;1.67;;
23720;SDS011;42950;52.134;5.578;2022-08-25T11:20:21;4.05;;;1.70;;
23720;SDS011;42950;52.134;5.578;2022-08-25T11:23:08;3.17;;;1.98;;
23720;SDS011;42950;52.134;5.578;2022-08-25T11:25:43;4.35;;;1.77;;
23720;SDS011;42950;52.134;5.578;2022-08-25T11:28:12;3.35;;;1.50;;
23720;SDS011;42950;52.134;5.578;2022-08-25T11:30:39;4.50;;;1.70;;
23720;SDS011;42950;52.134;5.578;2022-08-25T11:33:06;3.58;;;1.70;;
23720;SDS011;42950;52.134;5.578;2022-08-25T11:35:37;1.85;;;1.50;;
23720;SDS011;42950;52.134;5.578;2022-08-25T11:43:33;3.47;;;1.63;;
23720;SDS011;42950;52.134;5.578;2022-08-25T11:46:16;10.18;;;1.88;;
23720;SDS011;42950;52.134;5.578;2022-08-25T11:49:17;5.00;;;1.60;;
23720;SDS011;42950;52.134;5.578;2022-08-25T11:51:53;2.95;;;2.00;;
23720;SDS011;42950;52.134;5.578;2022-08-25T11:57:05;5.97;;;1.70;;
23720;SDS011;42950;52.134;5.578;2022-08-25T12:02:29;4.18;;;1.65;;
23720;SDS011;42950;52.134;5.578;2022-08-25T12:04:54;4.45;;;2.00;;
23720;SDS011;42950;52.134;5.578;2022-08-25T12:07:22;3.28;;;1.73;;
23720;SDS011;42950;52.134;5.578;2022-08-25T12:18:07;4.28;;;1.67;;
23720;SDS011;42950;52.134;5.578;2022-08-25T12:23:25;4.47;;;1.85;;
23720;SDS011;42950;52.134;5.578;2022-08-25T12:26:11;2.40;;;1.83;;
23720;SDS011;42950;52.134;5.578;2022-08-25T12:37:01;5.63;;;2.03;;
23720;SDS011;42950;52.134;5.578;2022-08-25T12:39:36;5.43;;;1.80;;
23720;SDS011;42950;52.134;5.578;2022-08-25T12:42:29;3.47;;;1.77;;
23720;SDS011;42950;52.134;5.578;2022-08-25T12:47:50;4.57;;;1.90;;
23720;SDS011;42950;52.134;5.578;2022-08-25T12:53:17;3.00;;;2.13;;
23720;SDS011;42950;52.134;5.578;2022-08-25T12:55:58;3.58;;;2.10;;
23720;SDS011;42950;52.134;5.578;2022-08-25T13:12:57;3.72;;;1.88;;
23720;SDS011;42950;52.134;5.578;2022-08-25T13:15:26;4.25;;;1.98;;
23720;SDS011;42950;52.134;5.578;2022-08-25T13:18:24;5.10;;;1.85;;
23720;SDS011;42950;52.134;5.578;2022-08-25T13:21:07;1.77;;;1.60;;
23720;SDS011;42950;52.134;5.578;2022-08-25T13:23:43;6.32;;;2.13;;
23720;SDS011;42950;52.134;5.578;2022-08-25T13:26:15;6.10;;;1.85;;
23720;SDS011;42950;52.134;5.578;2022-08-25T13:28:49;10.63;;;2.10;;
23720;SDS011;42950;52.134;5.578;2022-08-25T13:31:26;5.07;;;2.00;;
23720;SDS011;42950;52.134;5.578;2022-08-25T13:33:55;3.42;;;1.58;;
23720;SDS011;42950;52.134;5.578;2022-08-25T13:36:24;2.60;;;1.90;;
23720;SDS011;42950;52.134;5.578;2022-08-25T13:41:42;2.22;;;1.80;;
23720;SDS011;42950;52.134;5.578;2022-08-25T13:44:14;2.78;;;1.88;;
23720;SDS011;42950;52.134;5.578;2022-08-25T13:46:41;3.15;;;2.20;;
23720;SDS011;42950;52.134;5.578;2022-08-25T13:49:07;5.57;;;1.83;;
23720;SDS011;42950;52.134;5.578;2022-08-25T13:51:34;5.57;;;1.90;;
23720;SDS011;42950;52.134;5.578;2022-08-25T13:54:01;4.38;;;2.20;;
23720;SDS011;42950;52.134;5.578;2022-08-25T13:56:36;2.25;;;1.80;;
23720;SDS011;42950;52.134;5.578;2022-08-25T13:59:04;5.07;;;2.10;;
23720;SDS011;42950;52.134;5.578;2022-08-25T14:01:43;3.10;;;1.73;;
23720;SDS011;42950;52.134;5.578;2022-08-25T14:07:39;2.47;;;1.88;;
23720;SDS011;42950;52.134;5.578;2022-08-25T14:09:58;4.60;;;1.70;;
23720;SDS011;42950;52.134;5.578;2022-08-25T14:12:42;4.43;;;1.90;;
23720;SDS011;42950;52.134;5.578;2022-08-25T14:17:45;2.17;;;1.70;;
23720;SDS011;42950;52.134;5.578;2022-08-25T14:20:18;3.05;;;2.03;;
23720;SDS011;42950;52.134;5.578;2022-08-25T14:22:50;4.65;;;1.95;;
23720;SDS011;42950;52.134;5.578;2022-08-25T14:25:38;4.72;;;2.00;;
23720;SDS011;42950;52.134;5.578;2022-08-25T14:28:04;5.70;;;2.08;;
23720;SDS011;42950;52.134;5.578;2022-08-25T14:30:34;6.55;;;1.80;;
23720;SDS011;42950;52.134;5.578;2022-08-25T14:33:03;4.05;;;1.90;;
23720;SDS011;42950;52.134;5.578;2022-08-25T14:35:29;4.88;;;1.70;;
23720;SDS011;42950;52.134;5.578;2022-08-25T14:37:55;5.22;;;2.00;;
23720;SDS011;42950;52.134;5.578;2022-08-25T14:40:21;2.28;;;1.88;;
23720;SDS011;42950;52.134;5.578;2022-08-25T14:42:47;2.88;;;1.98;;
23720;SDS011;42950;52.134;5.578;2022-08-25T14:45:14;6.70;;;1.90;;
23720;SDS011;42950;52.134;5.578;2022-08-25T14:47:41;4.18;;;1.75;;
23720;SDS011;42950;52.134;5.578;2022-08-25T14:50:08;5.03;;;1.67;;
23720;SDS011;42950;52.134;5.578;2022-08-25T14:52:34;2.95;;;2.05;;
23720;SDS011;42950;52.134;5.578;2022-08-25T14:55:00;5.03;;;1.95;;
23720;SDS011;42950;52.134;5.578;2022-08-25T14:57:26;4.68;;;2.08;;
23720;SDS011;42950;52.134;5.578;2022-08-25T14:59:52;2.58;;;1.90;;
23720;SDS011;42950;52.134;5.578;2022-08-25T15:02:19;4.53;;;1.95;;
23720;SDS011;42950;52.134;5.578;2022-08-25T15:04:48;5.13;;;1.75;;
23720;SDS011;42950;52.134;5.578;2022-08-25T15:07:16;6.43;;;1.83;;
23720;SDS011;42950;52.134;5.578;2022-08-25T15:10:00;4.18;;;1.88;;
23720;SDS011;42950;52.134;5.578;2022-08-25T15:12:26;3.20;;;1.83;;
23720;SDS011;42950;52.134;5.578;2022-08-25T15:14:52;9.63;;;1.98;;
23720;SDS011;42950;52.134;5.578;2022-08-25T15:17:18;5.57;;;1.92;;
23720;SDS011;42950;52.134;5.578;2022-08-25T15:19:44;6.00;;;2.28;;
23720;SDS011;42950;52.134;5.578;2022-08-25T15:22:09;2.55;;;1.80;;
23720;SDS011;42950;52.134;5.578;2022-08-25T15:24:35;2.00;;;1.80;;
23720;SDS011;42950;52.134;5.578;2022-08-25T15:27:02;3.70;;;1.90;;
23720;SDS011;42950;52.134;5.578;2022-08-25T15:29:30;7.47;;;2.17;;
23720;SDS011;42950;52.134;5.578;2022-08-25T15:31:58;6.45;;;1.90;;
23720;SDS011;42950;52.134;5.578;2022-08-25T15:34:27;7.60;;;1.92;;
23720;SDS011;42950;52.134;5.578;2022-08-25T15:36:54;3.85;;;1.50;;
23720;SDS011;42950;52.134;5.578;2022-08-25T15:39:22;3.35;;;1.70;;
23720;SDS011;42950;52.134;5.578;2022-08-25T15:41:47;2.35;;;1.77;;
23720;SDS011;42950;52.134;5.578;2022-08-25T15:44:16;5.60;;;2.00;;
23720;SDS011;42950;52.134;5.578;2022-08-25T15:46:41;7.13;;;2.10;;
23720;SDS011;42950;52.134;5.578;2022-08-25T15:49:07;5.55;;;1.98;;
23720;SDS011;42950;52.134;5.578;2022-08-25T15:51:33;4.07;;;1.95;;
23720;SDS011;42950;52.134;5.578;2022-08-25T15:53:58;2.78;;;1.92;;
23720;SDS011;42950;52.134;5.578;2022-08-25T15:56:24;2.95;;;1.95;;
23720;SDS011;42950;52.134;5.578;2022-08-25T15:58:50;4.47;;;2.13;;
23720;SDS011;42950;52.134;5.578;2022-08-25T16:01:18;3.08;;;2.10;;
23720;SDS011;42950;52.134;5.578;2022-08-25T16:03:45;4.18;;;1.90;;
23720;SDS011;42950;52.134;5.578;2022-08-25T16:06:11;4.95;;;1.70;;
23720;SDS011;42950;52.134;5.578;2022-08-25T16:08:37;3.08;;;1.90;;
23720;SDS011;42950;52.134;5.578;2022-08-25T16:11:04;4.53;;;1.90;;
23720;SDS011;42950;52.134;5.578;2022-08-25T16:13:30;5.78;;;2.30;;
23720;SDS011;42950;52.134;5.578;2022-08-25T16:15:57;3.15;;;1.95;;
23720;SDS011;42950;52.134;5.578;2022-08-25T16:18:23;3.85;;;1.77;;
23720;SDS011;42950;52.134;5.578;2022-08-25T16:20:49;6.03;;;1.80;;
23720;SDS011;42950;52.134;5.578;2022-08-25T16:23:16;5.15;;;1.75;;
23720;SDS011;42950;52.134;5.578;2022-08-25T16:25:43;5.97;;;2.08;;
23720;SDS011;42950;52.134;5.578;2022-08-25T16:28:10;4.57;;;2.00;;
23720;SDS011;42950;52.134;5.578;2022-08-25T16:30:37;5.25;;;2.28;;
23720;SDS011;42950;52.134;5.578;2022-08-25T16:33:06;4.18;;;1.85;;
23720;SDS011;42950;52.134;5.578;2022-08-25T16:35:32;4.57;;;1.90;;
23720;SDS011;42950;52.134;5.578;2022-08-25T16:37:58;6.15;;;1.85;;
23720;SDS011;42950;52.134;5.578;2022-08-25T16:40:24;2.83;;;1.90;;
23720;SDS011;42950;52.134;5.578;2022-08-25T16:42:51;5.05;;;1.95;;
23720;SDS011;42950;52.134;5.578;2022-08-25T16:45:17;2.40;;;1.70;;
23720;SDS011;42950;52.134;5.578;2022-08-25T16:47:43;3.80;;;1.75;;
23720;SDS011;42950;52.134;5.578;2022-08-25T16:50:09;5.35;;;2.08;;
23720;SDS011;42950;52.134;5.578;2022-08-25T16:52:35;4.28;;;2.03;;
23720;SDS011;42950;52.134;5.578;2022-08-25T16:55:20;7.85;;;2.10;;
23720;SDS011;42950;52.134;5.578;2022-08-25T16:57:51;4.60;;;2.03;;
23720;SDS011;42950;52.134;5.578;2022-08-25T17:00:19;7.07;;;2.10;;
23720;SDS011;42950;52.134;5.578;2022-08-25T17:02:47;7.13;;;2.40;;